Time;durP1;ratioP1;P1;durP2;ratioP2;P2;SDS_P1;SDS_P2;PMS_P1;PMS_P2;Temp;Humidity;BMP_temperature;BMP_pressure;BME280_temperature;BME280_humidity;BME280_pressure;Samples;Min_cycle;Max_cycle;Signal;HPM_P1;HPM_P2
2022/06/11 00:01:06;;;;;;;;;;;;;;;14.50;63.83;97099.63;5095332;28;19963;-70
2022/06/11 00:03:32;;;;;;;;;;;;;;;14.47;63.73;97105.34;5094688;28;19964;-70
2022/06/11 00:05:58;;;;;;;;;;;;;;;14.45;63.53;97107.41;5094782;28;19964;-70
2022/06/11 00:08:25;;;;;;;;;;;;;;;14.43;63.36;97106.88;5093830;28;20057;-70
2022/06/11 00:10:51;;;;;;;;;;;;;;;14.39;63.73;97109.94;5094580;28;19957;-70
2022/06/11 00:13:22;;;;;;;;;;;;;;;14.36;63.83;97109.56;5094452;28;19965;-70
2022/06/11 00:15:48;;;;;;;;;;;;;;;14.34;64.21;97115.09;5094841;28;20426;-70
2022/06/11 00:18:14;;;;;;;;;;;;;;;14.32;64.49;97118.97;5094674;28;20400;-70
2022/06/11 00:20:43;;;;;;;;;;;;;;;14.28;64.92;97115.16;5094125;28;19966;-70
2022/06/11 00:23:29;;;;;;;;;;;;;;;14.23;64.92;97113.22;5078813;28;20337;-70
2022/06/11 00:25:55;;;;;;;;;;;;;;;14.18;65.24;97113.88;5094242;28;19990;-70
2022/06/11 00:28:21;;;;;;;;;;;;;;;14.14;65.14;97109.28;5094272;28;20021;-70
2022/06/11 00:30:48;;;;;;;;;;;;;;;14.10;64.81;97108.94;5094496;28;19990;-70
2022/06/11 00:33:14;;;;;;;;;;;;;;;14.07;65.32;97106.75;5094333;28;20442;-70
2022/06/11 00:35:40;;;;;;;;;;;;;;;14.04;65.16;97107.19;5094161;28;19970;-70
2022/06/11 00:38:07;;;;;;;;;;;;;;;14.01;65.36;97105.81;5094053;28;19958;-70
2022/06/11 00:40:34;;;;;;;;;;;;;;;13.99;65.34;97104.41;5094622;28;20324;-70
2022/06/11 00:43:00;;;;;;;;;;;;;;;13.97;65.38;97101.19;5094243;28;20316;-70
2022/06/11 00:45:33;;;;;;;;;;;;;;;13.95;65.39;97108.53;5094185;28;20435;-70
2022/06/11 00:48:02;;;;;;;;;;;;;;;13.93;65.15;97105.31;5093979;28;19969;-70
2022/06/11 00:50:38;;;;;;;;;;;;;;;13.90;65.77;97109.19;5093797;28;19958;-70
2022/06/11 00:53:06;;;;;;;;;;;;;;;13.89;66.44;97114.69;5093985;28;19960;-70
2022/06/11 00:55:36;;;;;;;;;;;;;;;13.88;66.57;97113.06;5094405;28;19967;-70
2022/06/11 00:58:07;;;;;;;;;;;;;;;13.86;66.59;97105.41;5093818;28;19955;-70
2022/06/11 01:00:38;;;;;;;;;;;;;;;13.82;66.95;97106.88;5094290;28;20334;-70
2022/06/11 01:03:05;;;;;;;;;;;;;;;13.79;66.59;97107.28;5093969;28;19952;-70
2022/06/11 01:05:34;;;;;;;;;;;;;;;13.77;66.63;97102.28;5093739;28;19957;-70
2022/06/11 01:08:03;;;;;;;;;;;;;;;13.76;66.48;97105.13;5093728;28;19967;-70
2022/06/11 01:10:32;;;;;;;;;;;;;;;13.72;67.12;97104.75;5075550;28;19958;-70
2022/06/11 01:13:01;;;;;;;;;;;;;;;13.71;67.12;97110.22;5093595;28;19961;-70
2022/06/11 01:15:34;;;;;;;;;;;;;;;13.68;67.32;97108.84;5093533;28;20465;-70
2022/06/11 01:18:18;;;;;;;;;;;;;;;13.65;67.59;97109.31;5093676;28;19971;-70
2022/06/11 01:20:56;;;;;;;;;;;;;;;13.60;67.77;97111.78;5077874;28;19948;-70
2022/06/11 01:23:28;;;;;;;;;;;;;;;13.57;67.49;97105.13;5092792;28;19960;-70
2022/06/11 01:25:57;;;;;;;;;;;;;;;13.57;67.74;97106.97;5093668;28;20302;-70
2022/06/11 01:28:42;;;;;;;;;;;;;;;13.53;68.29;97103.94;5093521;28;19969;-70
2022/06/11 01:31:14;;;;;;;;;;;;;;;13.51;68.46;97105.22;5080978;28;19985;-70
2022/06/11 01:33:43;;;;;;;;;;;;;;;13.47;67.74;97104.03;5075686;28;19990;-70
2022/06/11 01:36:12;;;;;;;;;;;;;;;13.45;68.19;97101.59;5093370;28;19958;-70
2022/06/11 01:38:40;;;;;;;;;;;;;;;13.43;67.91;97106.28;5092705;28;19961;-70
2022/06/11 01:41:12;;;;;;;;;;;;;;;13.42;67.84;97096.78;5093523;28;19963;-70
2022/06/11 01:43:41;;;;;;;;;;;;;;;13.42;68.04;97095.97;5093518;28;19960;-70
2022/06/11 01:46:10;;;;;;;;;;;;;;;13.41;67.63;97089.91;5093550;28;20036;-70
2022/06/11 01:48:36;;;;;;;;;;;;;;;13.43;67.98;97094.97;5093074;28;20019;-70
2022/06/11 01:51:22;;;;;;;;;;;;;;;13.42;68.17;97099.44;5093706;28;19952;-70
2022/06/11 01:53:54;;;;;;;;;;;;;;;13.40;68.72;97101.47;5066800;28;19955;-70
2022/06/11 01:56:26;;;;;;;;;;;;;;;13.39;69.01;97105.13;5093188;28;20442;-70
2022/06/11 01:58:58;;;;;;;;;;;;;;;13.37;68.73;97102.69;5093329;28;20442;-70
2022/06/11 02:01:44;;;;;;;;;;;;;;;13.37;69.07;97100.06;5093599;28;19962;-70
2022/06/11 02:04:28;;;;;;;;;;;;;;;13.34;68.82;97099.72;5077219;28;20017;-70
2022/06/11 02:07:15;;;;;;;;;;;;;;;13.30;68.97;97093.28;5093148;28;20348;-70
2022/06/11 02:09:49;;;;;;;;;;;;;;;13.24;69.15;97099.38;5093165;28;20329;-70
2022/06/11 02:12:20;;;;;;;;;;;;;;;13.20;69.17;97094.53;5093471;28;20000;-70
2022/06/11 02:14:53;;;;;;;;;;;;;;;13.16;68.81;97093.38;5093661;28;19955;-70
2022/06/11 02:17:25;;;;;;;;;;;;;;;13.12;68.63;97092.22;5093191;28;19954;-70
2022/06/11 02:19:54;;;;;;;;;;;;;;;13.10;68.64;97085.53;5093222;28;19958;-70
2022/06/11 02:22:20;;;;;;;;;;;;;;;13.07;68.35;97094.69;5096085;28;19976;-70
2022/06/11 02:24:49;;;;;;;;;;;;;;;13.04;68.61;97089.88;5096400;28;19957;-70
2022/06/11 02:27:17;;;;;;;;;;;;;;;13.03;68.87;97095.34;5096563;28;19973;-70
2022/06/11 02:29:44;;;;;;;;;;;;;;;13.01;69.25;97100.81;5096772;28;19958;-70
2022/06/11 02:32:13;;;;;;;;;;;;;;;12.98;69.22;97096.00;5096438;28;19961;-70
2022/06/11 02:34:41;;;;;;;;;;;;;;;12.95;69.69;97091.16;5096643;28;19966;-70
2022/06/11 02:37:17;;;;;;;;;;;;;;;12.93;70.11;97101.09;5096046;28;20414;-70
2022/06/11 02:39:43;;;;;;;;;;;;;;;12.89;69.84;97095.47;5095412;28;19956;-70
2022/06/11 02:42:12;;;;;;;;;;;;;;;12.84;70.71;97092.66;5096586;28;19965;-70
2022/06/11 02:44:38;;;;;;;;;;;;;;;12.79;70.08;97101.22;5096484;28;19986;-70
2022/06/11 02:47:04;;;;;;;;;;;;;;;12.76;69.64;97092.94;5096410;28;20057;-70
2022/06/11 02:49:33;;;;;;;;;;;;;;;12.72;70.09;97094.38;5096399;28;19955;-70
2022/06/11 02:52:01;;;;;;;;;;;;;;;12.69;70.31;97098.25;5096342;28;19955;-70
2022/06/11 02:54:27;;;;;;;;;;;;;;;12.67;70.38;97100.28;5096698;28;19968;-70
2022/06/11 02:56:54;;;;;;;;;;;;;;;12.64;70.45;97100.75;5096290;28;19967;-70
2022/06/11 02:59:22;;;;;;;;;;;;;;;12.61;70.56;97098.53;5096314;28;20327;-71
2022/06/11 03:01:49;;;;;;;;;;;;;;;12.57;70.70;97103.41;5096327;28;20058;-70
2022/06/11 03:04:15;;;;;;;;;;;;;;;12.54;70.57;97101.22;5096237;28;20021;-70
2022/06/11 03:06:42;;;;;;;;;;;;;;;12.54;70.60;97105.66;5095708;28;19961;-70
2022/06/11 03:09:09;;;;;;;;;;;;;;;12.50;70.62;97105.28;5095921;28;19958;-70
2022/06/11 03:11:35;;;;;;;;;;;;;;;12.50;70.75;97107.13;5095861;28;19957;-70
2022/06/11 03:14:01;;;;;;;;;;;;;;;12.48;70.79;97107.31;5095780;28;19954;-70
2022/06/11 03:16:27;;;;;;;;;;;;;;;12.47;70.88;97110.97;5095807;28;19962;-70
2022/06/11 03:18:53;;;;;;;;;;;;;;;12.47;70.76;97110.97;5095665;28;19969;-70
2022/06/11 03:21:19;;;;;;;;;;;;;;;12.47;70.56;97108.31;5096095;28;20049;-70
2022/06/11 03:23:45;;;;;;;;;;;;;;;12.47;70.94;97110.97;5095626;28;20392;-70
2022/06/11 03:26:11;;;;;;;;;;;;;;;12.48;71.23;97114.41;5095746;28;19963;-70
2022/06/11 03:28:37;;;;;;;;;;;;;;;12.48;71.09;97111.78;5095299;28;19978;-70
2022/06/11 03:31:06;;;;;;;;;;;;;;;12.47;71.48;97118.84;5095577;28;20061;-70
2022/06/11 03:33:33;;;;;;;;;;;;;;;12.46;71.26;97111.19;5095599;28;19967;-70
2022/06/11 03:36:00;;;;;;;;;;;;;;;12.43;71.12;97107.16;5095261;28;19959;-70
2022/06/11 03:38:26;;;;;;;;;;;;;;;12.41;71.14;97111.00;5095387;28;20337;-70
2022/06/11 03:40:52;;;;;;;;;;;;;;;12.39;71.20;97116.50;5095351;28;19962;-70
2022/06/11 03:43:18;;;;;;;;;;;;;;;12.36;71.13;97117.72;5095293;28;20344;-70
2022/06/11 03:45:44;;;;;;;;;;;;;;;12.34;72.83;97121.56;5094347;28;19956;-70
2022/06/11 03:48:11;;;;;;;;;;;;;;;12.31;72.08;97119.38;5095695;28;20062;-70
2022/06/11 03:50:38;;;;;;;;;;;;;;;12.30;72.35;97121.19;5095146;28;19966;-70
2022/06/11 03:53:05;;;;;;;;;;;;;;;12.29;72.39;97122.22;5095117;28;19955;-70
2022/06/11 03:55:31;;;;;;;;;;;;;;;12.30;72.14;97125.66;5095069;28;19977;-70
2022/06/11 03:57:58;;;;;;;;;;;;;;;12.28;72.35;97128.47;5094856;28;19965;-70
2022/06/11 04:03:11;;;;;;;;;;;;;;;12.27;72.55;97129.50;5095005;28;19957;-70
2022/06/11 04:05:38;;;;;;;;;;;;;;;12.28;72.48;97130.31;5094796;28;19961;-70
2022/06/11 04:08:05;;;;;;;;;;;;;;;12.29;72.81;97132.75;5094697;28;19996;-70
2022/06/11 04:10:31;;;;;;;;;;;;;;;12.33;72.46;97133.13;5094752;28;20007;-70
2022/06/11 04:12:57;;;;;;;;;;;;;;;12.38;72.88;97136.72;5094665;28;19961;-70
2022/06/11 04:15:23;;;;;;;;;;;;;;;12.44;72.94;97142.16;5094450;28;19970;-70
2022/06/11 04:17:49;;;;;;;;;;;;;;;12.50;72.87;97136.06;5094794;28;19958;-70
2022/06/11 04:20:15;;;;;;;;;;;;;;;12.56;72.91;97132.56;5094620;28;19961;-70
2022/06/11 04:22:41;;;;;;;;;;;;;;;12.67;72.76;97136.34;5094673;28;19985;-70
2022/06/11 04:25:08;;;;;;;;;;;;;;;12.73;72.39;97133.66;5076361;28;19987;-70
2022/06/11 04:27:34;;;;;;;;;;;;;;;12.82;72.47;97131.56;5094264;28;19970;-70
2022/06/11 04:30:00;;;;;;;;;;;;;;;12.91;71.80;97134.72;5094386;28;19964;-70
2022/06/11 04:32:28;;;;;;;;;;;;;;;12.99;71.46;97131.81;5094522;28;20034;-70
2022/06/11 04:34:54;;;;;;;;;;;;;;;13.04;71.90;97142.53;5094393;28;19965;-70
2022/06/11 04:37:23;;;;;;;;;;;;;;;13.00;70.86;97134.25;5093732;28;20293;-70
2022/06/11 04:39:50;;;;;;;;;;;;;;;13.03;71.05;97133.00;5094327;28;19968;-71
2022/06/11 04:42:17;;;;;;;;;;;;;;;13.06;71.05;97137.03;5094196;28;19963;-70
2022/06/11 04:44:44;;;;;;;;;;;;;;;13.10;71.06;97140.84;5093558;28;20014;-71
2022/06/11 04:47:12;;;;;;;;;;;;;;;13.15;70.67;97139.16;5094242;28;20325;-70
2022/06/11 04:49:37;;;;;;;;;;;;;;;13.17;70.58;97138.97;5094163;28;19958;-71
2022/06/11 04:52:04;;;;;;;;;;;;;;;13.17;69.40;97129.22;5094068;28;19960;-70
2022/06/11 04:54:30;;;;;;;;;;;;;;;13.27;70.87;97146.34;5094552;28;19956;-70
2022/06/11 04:56:56;;;;;;;;;;;;;;;13.39;71.02;97137.53;5093836;28;20051;-70
2022/06/11 04:59:22;;;;;;;;;;;;;;;13.57;70.10;97138.59;5093854;28;19956;-70
2022/06/11 05:01:48;;;;;;;;;;;;;;;13.78;70.09;97138.13;5093893;28;20433;-70
2022/06/11 05:04:40;;;;;;;;;;;;;;;13.99;69.40;97134.22;4992729;28;20098;-70
2022/06/11 05:07:06;;;;;;;;;;;;;;;14.16;68.76;97125.69;4992107;28;20046;-71
2022/06/11 05:09:33;;;;;;;;;;;;;;;14.35;68.38;97132.53;4992208;28;19964;-70
2022/06/11 05:12:00;;;;;;;;;;;;;;;14.56;68.02;97128.59;4992327;28;19971;-70
2022/06/11 05:14:26;;;;;;;;;;;;;;;14.77;67.42;97121.19;4992151;28;20330;-70
2022/06/11 05:16:52;;;;;;;;;;;;;;;14.99;66.97;97126.69;5091787;28;20009;-71
2022/06/11 05:19:19;;;;;;;;;;;;;;;15.22;66.27;97116.16;5092940;28;19970;-70
2022/06/11 05:21:46;;;;;;;;;;;;;;;15.51;66.02;97113.56;5093761;28;20410;-70
2022/06/11 05:24:12;;;;;;;;;;;;;;;15.82;65.86;97119.53;5093458;28;19965;-70
2022/06/11 05:26:58;;;;;;;;;;;;;;;16.15;64.94;97115.38;5093582;28;19956;-71
2022/06/11 05:29:32;;;;;;;;;;;;;;;16.49;64.54;97107.50;5057788;28;19963;-70
2022/06/11 05:31:58;;;;;;;;;;;;;;;16.79;63.36;97100.03;5093380;28;19982;-70
2022/06/11 05:34:24;;;;;;;;;;;;;;;17.10;62.57;97099.75;5093647;28;19978;-70
2022/06/11 05:36:51;;;;;;;;;;;;;;;17.36;61.64;97091.06;5093085;28;19959;-70
2022/06/11 05:39:17;;;;;;;;;;;;;;;17.61;61.09;97079.19;5093383;28;19962;-70
2022/06/11 05:41:44;;;;;;;;;;;;;;;17.65;59.87;97070.47;5093526;28;19969;-70
2022/06/11 05:44:09;;;;;;;;;;;;;;;17.65;58.89;97062.53;5093278;28;19952;-70
2022/06/11 05:46:36;;;;;;;;;;;;;;;17.63;59.21;97061.97;5093474;28;20057;-70
2022/06/11 05:49:06;;;;;;;;;;;;;;;17.73;60.01;97074.56;5093179;28;20035;-70
2022/06/11 05:51:35;;;;;;;;;;;;;;;18.00;59.83;97082.59;5093493;28;19965;-70
2022/06/11 05:54:06;;;;;;;;;;;;;;;18.30;59.26;97068.00;5093346;28;20401;-70
2022/06/11 05:56:32;;;;;;;;;;;;;;;18.44;58.70;97065.75;5096612;28;19965;-71
2022/06/11 05:59:00;;;;;;;;;;;;;;;18.56;56.02;97037.16;5097244;28;20323;-70
2022/06/11 06:01:28;;;;;;;;;;;;;;;18.63;57.62;97058.19;5097599;28;19970;-70
2022/06/11 06:03:54;;;;;;;;;;;;;;;18.76;57.42;97059.59;5097207;28;19989;-70
2022/06/11 06:06:24;;;;;;;;;;;;;;;18.91;56.28;97046.44;5061631;28;20415;-70
2022/06/11 06:08:50;;;;;;;;;;;;;;;19.02;56.42;97058.75;5097068;28;19996;-70
2022/06/11 06:11:17;;;;;;;;;;;;;;;19.11;55.06;97042.28;5096108;28;20414;-70
2022/06/11 06:13:49;;;;;;;;;;;;;;;19.09;54.81;97039.09;5097646;28;19982;-70
2022/06/11 06:16:22;;;;;;;;;;;;;;;19.09;55.44;97055.03;5097135;28;19963;-70
2022/06/11 06:18:48;;;;;;;;;;;;;;;19.21;55.13;97052.97;5085306;28;19954;-70
2022/06/11 06:21:15;;;;;;;;;;;;;;;19.39;55.43;97054.41;5096825;28;20329;-70
2022/06/11 06:23:41;;;;;;;;;;;;;;;19.60;55.43;97057.97;5096868;28;19960;-70
2022/06/11 06:26:07;;;;;;;;;;;;;;;19.66;54.81;97060.38;5096690;28;19960;-70
2022/06/11 06:28:34;;;;;;;;;;;;;;;19.78;53.75;97049.53;5096676;28;20396;-71
2022/06/11 06:31:01;;;;;;;;;;;;;;;19.84;52.95;97042.34;5096778;28;19984;-70
2022/06/11 06:33:27;;;;;;;;;;;;;;;19.80;52.96;97049.25;5096640;28;19968;-70
2022/06/11 06:35:53;;;;;;;;;;;;;;;19.99;54.28;97065.53;5096457;28;19964;-70
2022/06/11 06:38:19;;;;;;;;;;;;;;;20.01;52.05;97053.59;5095069;28;19966;-70
2022/06/11 06:40:45;;;;;;;;;;;;;;;19.89;52.79;97060.22;5096365;28;20037;-70
2022/06/11 06:43:11;;;;;;;;;;;;;;;20.01;52.76;97071.41;5096768;28;20035;-70
2022/06/11 06:45:37;;;;;;;;;;;;;;;20.13;53.29;97073.84;5096545;28;19960;-70
2022/06/11 06:48:03;;;;;;;;;;;;;;;20.23;53.07;97077.31;5096406;28;20343;-70
2022/06/11 06:50:29;;;;;;;;;;;;;;;20.44;52.24;97072.81;5096384;28;20354;-72
2022/06/11 06:52:55;;;;;;;;;;;;;;;20.35;51.83;97073.59;5086980;28;19954;-70
2022/06/11 06:55:22;;;;;;;;;;;;;;;20.29;51.91;97080.78;5095166;28;19967;-70
2022/06/11 06:57:49;;;;;;;;;;;;;;;20.37;53.01;97096.25;5096066;28;19953;-70
2022/06/11 07:00:17;;;;;;;;;;;;;;;20.61;51.85;97091.22;5096068;28;19966;-70
2022/06/11 07:02:44;;;;;;;;;;;;;;;20.72;50.81;97081.34;5095453;28;19957;-70
2022/06/11 07:05:12;;;;;;;;;;;;;;;20.78;50.52;97090.16;5095955;28;19969;-70
2022/06/11 07:07:38;;;;;;;;;;;;;;;20.97;51.24;97101.88;5095372;28;19958;-70
2022/06/11 07:10:05;;;;;;;;;;;;;;;21.12;50.41;97089.59;5096019;28;19956;-70
2022/06/11 07:12:31;;;;;;;;;;;;;;;21.21;49.98;97114.66;5095971;28;19962;-70
2022/06/11 07:14:57;;;;;;;;;;;;;;;21.46;49.74;97113.78;5095839;28;19967;-69
2022/06/11 07:17:24;;;;;;;;;;;;;;;21.51;48.14;97119.13;5095786;28;20409;-70
2022/06/11 07:19:56;;;;;;;;;;;;;;;21.52;47.16;97118.06;5095699;28;19950;-71
2022/06/11 07:22:30;;;;;;;;;;;;;;;21.45;48.04;97117.56;5094914;28;19962;-70
2022/06/11 07:24:57;;;;;;;;;;;;;;;21.43;47.68;97123.16;5095837;28;19954;-70
2022/06/11 07:27:25;;;;;;;;;;;;;;;21.53;47.80;97119.66;5095539;28;19965;-70
2022/06/11 07:29:54;;;;;;;;;;;;;;;21.79;46.95;97119.56;5095615;28;19988;-70
2022/06/11 07:32:21;;;;;;;;;;;;;;;21.94;45.97;97113.34;5095351;28;19983;-70
2022/06/11 07:34:47;;;;;;;;;;;;;;;21.96;43.68;97112.00;5095352;28;19965;-70
2022/06/11 07:37:14;;;;;;;;;;;;;;;21.92;45.28;97121.63;5095716;28;19955;-70
2022/06/11 07:39:40;;;;;;;;;;;;;;;22.00;46.50;97120.28;5095846;28;19962;-70
2022/06/11 07:42:07;;;;;;;;;;;;;;;22.09;47.33;97132.78;5095311;28;20448;-70
2022/06/11 07:44:35;;;;;;;;;;;;;;;22.34;46.78;97133.72;5094056;28;19953;-70
2022/06/11 07:47:01;;;;;;;;;;;;;;;22.34;44.68;97130.25;5095258;28;19959;-71
2022/06/11 07:49:27;;;;;;;;;;;;;;;22.50;46.34;97137.91;5094957;28;19984;-70
2022/06/11 07:51:54;;;;;;;;;;;;;;;22.72;47.65;97136.72;5095428;28;19964;-71
2022/06/11 07:54:20;;;;;;;;;;;;;;;22.87;45.98;97123.19;5095234;28;20408;-70
2022/06/11 07:56:46;;;;;;;;;;;;;;;22.86;46.11;97121.59;5095027;28;20013;-70
2022/06/11 07:59:22;;;;;;;;;;;;;;;22.78;44.74;97116.06;5039465;28;19966;-71
2022/06/11 08:01:48;;;;;;;;;;;;;;;22.88;46.62;97115.97;5091170;28;20444;-70
2022/06/11 08:04:14;;;;;;;;;;;;;;;22.95;47.90;97129.00;5095346;28;19960;-70
2022/06/11 08:06:40;;;;;;;;;;;;;;;23.07;45.53;97121.44;5076666;28;20384;-70
2022/06/11 08:09:29;;;;;;;;;;;;;;;23.14;46.55;97121.94;5084044;28;19970;-71
2022/06/11 08:11:55;;;;;;;;;;;;;;;23.08;44.22;97112.34;5094478;28;20044;-71
2022/06/11 08:14:22;;;;;;;;;;;;;;;23.16;46.04;97118.94;5094963;28;19979;-70
2022/06/11 08:17:05;;;;;;;;;;;;;;;23.21;45.11;97111.69;5094313;28;19962;-71
2022/06/11 08:19:31;;;;;;;;;;;;;;;23.24;46.69;97121.81;5094205;28;20426;-70
2022/06/11 08:21:57;;;;;;;;;;;;;;;23.30;45.23;97117.22;5094516;28;20001;-70
2022/06/11 08:24:23;;;;;;;;;;;;;;;23.34;46.26;97115.56;5076712;28;19991;-71
2022/06/11 08:26:49;;;;;;;;;;;;;;;23.44;45.96;97114.66;5094366;28;19962;-70
2022/06/11 08:29:15;;;;;;;;;;;;;;;23.46;45.23;97115.97;5094421;28;19976;-71
2022/06/11 08:31:41;;;;;;;;;;;;;;;23.58;45.63;97115.59;5094176;28;20003;-72
2022/06/11 08:34:09;;;;;;;;;;;;;;;23.77;45.63;97115.66;5075567;28;19972;-71
2022/06/11 08:36:35;;;;;;;;;;;;;;;23.94;45.08;97112.50;5093599;28;19962;-71
2022/06/11 08:39:01;;;;;;;;;;;;;;;24.05;43.01;97111.28;5094334;28;19957;-72
2022/06/11 08:41:33;;;;;;;;;;;;;;;24.14;44.38;97119.47;5094254;28;19958;-72
2022/06/11 08:44:08;;;;;;;;;;;;;;;24.21;43.66;97111.06;5093980;28;19954;-71
2022/06/11 08:46:35;;;;;;;;;;;;;;;24.18;43.35;97120.47;5094665;28;19966;-71
2022/06/11 08:49:04;;;;;;;;;;;;;;;24.24;42.09;97115.84;5093920;28;19968;-71
2022/06/11 08:51:36;;;;;;;;;;;;;;;24.20;40.22;97112.16;5093867;28;19964;-72
2022/06/11 08:54:05;;;;;;;;;;;;;;;24.28;43.62;97131.06;5093865;28;19959;-71
2022/06/11 08:56:34;;;;;;;;;;;;;;;24.49;39.66;97109.34;5092853;28;20333;-73
2022/06/11 08:59:09;;;;;;;;;;;;;;;24.65;42.29;97123.31;5094380;28;19951;-71
2022/06/11 09:01:35;;;;;;;;;;;;;;;24.84;41.65;97109.84;5093934;28;19961;-71
2022/06/11 09:04:27;;;;;;;;;;;;;;;24.95;39.79;97102.44;5093857;28;19958;-71
2022/06/11 09:07:00;;;;;;;;;;;;;;;24.99;36.45;97098.88;5089957;28;19956;-71
2022/06/11 09:09:34;;;;;;;;;;;;;;;25.01;39.49;97107.44;5093749;28;19983;-72
2022/06/11 09:12:19;;;;;;;;;;;;;;;25.14;37.45;97095.13;5082460;28;19954;-70
2022/06/11 09:15:03;;;;;;;;;;;;;;;25.22;39.81;97112.44;5093960;28;19968;-72
2022/06/11 09:17:35;;;;;;;;;;;;;;;25.22;39.40;97099.03;5080990;28;19958;-72
2022/06/11 09:20:34;;;;;;;;;;;;;;;25.28;37.04;97089.78;5093080;28;19961;-72
2022/06/11 09:23:16;;;;;;;;;;;;;;;25.36;38.32;97101.75;5093536;28;19962;-71
2022/06/11 09:26:06;;;;;;;;;;;;;;;25.49;35.56;97090.19;5081543;28;19957;-71
2022/06/11 09:28:32;;;;;;;;;;;;;;;25.63;38.07;97098.25;5092732;28;19980;-71
2022/06/11 09:31:11;;;;;;;;;;;;;;;25.68;36.65;97088.22;5096183;28;19982;-71
2022/06/11 09:33:40;;;;;;;;;;;;;;;25.76;38.04;97091.28;5097745;28;20404;-71
2022/06/11 09:36:10;;;;;;;;;;;;;;;25.72;36.11;97096.44;5097709;28;19956;-71
2022/06/11 09:38:47;;;;;;;;;;;;;;;25.67;35.79;97092.00;5097122;28;19958;-71
2022/06/11 09:41:32;;;;;;;;;;;;;;;25.59;35.94;97094.59;5081920;28;19958;-72
2022/06/11 09:44:11;;;;;;;;;;;;;;;25.65;34.31;97088.00;5097609;28;19957;-72
2022/06/11 09:46:43;;;;;;;;;;;;;;;25.69;33.24;97079.06;5097539;28;19958;-72
2022/06/11 09:49:30;;;;;;;;;;;;;;;25.62;38.09;97110.09;5097221;28;19978;-72
2022/06/11 09:52:11;;;;;;;;;;;;;;;25.62;34.64;97091.28;5097306;28;20316;-72
2022/06/11 09:54:50;;;;;;;;;;;;;;;25.64;36.00;97095.28;5097421;28;19953;-73
2022/06/11 09:57:34;;;;;;;;;;;;;;;25.79;35.55;97096.88;5095950;28;19966;-73
2022/06/11 10:00:19;;;;;;;;;;;;;;;25.79;36.01;97106.81;5097319;28;19961;-71
2022/06/11 10:05:42;;;;;;;;;;;;;;;26.16;37.66;97096.91;5097040;28;19957;-72
2022/06/11 10:08:17;;;;;;;;;;;;;;;26.18;33.58;97094.72;5097235;28;20005;-71
2022/06/11 10:10:45;;;;;;;;;;;;;;;26.21;35.12;97100.28;5080262;28;19959;-71
2022/06/11 10:13:33;;;;;;;;;;;;;;;26.37;37.58;97108.78;5097155;28;19961;-70
2022/06/11 10:16:03;;;;;;;;;;;;;;;26.29;33.53;97098.75;5089366;28;19957;-71
2022/06/11 10:18:32;;;;;;;;;;;;;;;26.22;34.85;97107.25;5097198;28;19955;-71
2022/06/11 10:21:03;;;;;;;;;;;;;;;26.24;32.64;97105.06;5096977;28;19955;-71
2022/06/11 10:23:35;;;;;;;;;;;;;;;26.33;35.26;97100.56;5096732;28;19951;-71
2022/06/11 10:26:03;;;;;;;;;;;;;;;26.53;35.07;97107.34;5096775;28;19963;-71
2022/06/11 10:28:37;;;;;;;;;;;;;;;26.66;33.51;97096.88;5096767;28;19997;-71
2022/06/11 10:31:27;;;;;;;;;;;;;;;26.41;31.77;97093.63;5097128;28;19984;-72
2022/06/11 10:33:56;;;;;;;;;;;;;;;26.30;33.28;97095.78;5097060;28;20314;-71
2022/06/11 10:36:45;;;;;;;;;;;;;;;26.17;34.91;97107.38;5096716;28;19952;-71
2022/06/11 10:39:30;;;;;;;;;;;;;;;26.08;34.18;97101.09;5096425;28;20020;-71
2022/06/11 10:42:08;;;;;;;;;;;;;;;26.08;34.58;97107.31;5095429;28;19955;-71
2022/06/11 10:44:49;;;;;;;;;;;;;;;26.15;34.85;97100.72;5080769;28;20328;-71
2022/06/11 10:47:34;;;;;;;;;;;;;;;26.32;34.10;97090.88;5095693;28;19956;-71
2022/06/11 10:50:09;;;;;;;;;;;;;;;26.60;34.39;97090.81;5084860;28;19974;-71
2022/06/11 10:52:35;;;;;;;;;;;;;;;26.92;34.02;97089.75;5096235;28;19959;-71
2022/06/11 10:55:03;;;;;;;;;;;;;;;26.93;32.66;97077.09;5096148;28;19981;-71
2022/06/11 10:57:31;;;;;;;;;;;;;;;26.95;32.41;97084.84;5096242;28;19961;-71
2022/06/11 11:00:05;;;;;;;;;;;;;;;27.02;34.43;97091.38;5095021;28;19956;-71
2022/06/11 11:02:37;;;;;;;;;;;;;;;26.98;33.85;97085.00;5096181;28;19955;-71
2022/06/11 11:05:06;;;;;;;;;;;;;;;27.20;34.16;97080.72;5095992;28;19955;-71
2022/06/11 11:07:41;;;;;;;;;;;;;;;27.43;32.17;97073.38;5086270;28;20012;-71
2022/06/11 11:10:18;;;;;;;;;;;;;;;27.50;33.02;97073.72;5096033;28;19972;-71
2022/06/11 11:12:44;;;;;;;;;;;;;;;27.55;32.88;97073.59;5095065;28;19962;-71
2022/06/11 11:15:12;;;;;;;;;;;;;;;27.64;33.08;97074.38;5094977;28;19971;-71
2022/06/11 11:17:44;;;;;;;;;;;;;;;27.81;32.24;97075.53;5095763;28;20334;-71
2022/06/11 11:20:34;;;;;;;;;;;;;;;27.86;33.05;97078.09;5095637;28;19964;-71
2022/06/11 11:23:09;;;;;;;;;;;;;;;27.89;31.92;97067.50;5095849;28;19973;-71
2022/06/11 11:25:41;;;;;;;;;;;;;;;27.79;32.65;97073.16;5095772;28;19976;-71
2022/06/11 11:28:15;;;;;;;;;;;;;;;27.67;31.18;97062.97;5095793;28;19957;-71
2022/06/11 11:30:41;;;;;;;;;;;;;;;27.65;33.15;97078.66;5095321;28;19986;-71
2022/06/11 11:33:19;;;;;;;;;;;;;;;27.75;32.37;97064.09;5095180;28;19970;-71
2022/06/11 11:35:45;;;;;;;;;;;;;;;27.63;32.58;97061.22;5095559;28;20027;-71
2022/06/11 11:38:11;;;;;;;;;;;;;;;27.25;32.41;97065.22;5095338;28;19972;-72
2022/06/11 11:40:53;;;;;;;;;;;;;;;26.95;32.70;97071.41;5080198;28;19983;-71
2022/06/11 11:43:20;;;;;;;;;;;;;;;27.03;34.62;97074.13;5093940;28;19958;-71
2022/06/11 11:46:00;;;;;;;;;;;;;;;27.37;33.95;97070.03;5095475;28;20348;-71
2022/06/11 11:48:30;;;;;;;;;;;;;;;27.68;33.65;97061.09;5086290;28;19961;-71
2022/06/11 11:51:00;;;;;;;;;;;;;;;28.00;32.93;97059.09;5084198;28;19964;-71
2022/06/11 11:53:32;;;;;;;;;;;;;;;28.23;32.63;97046.25;5084483;28;19958;-71
2022/06/11 11:56:00;;;;;;;;;;;;;;;28.43;33.02;97059.09;5095149;28;19961;-71
2022/06/11 11:58:37;;;;;;;;;;;;;;;28.61;31.40;97048.31;5094918;28;19958;-71
2022/06/11 12:01:13;;;;;;;;;;;;;;;28.69;32.64;97048.28;5094925;28;19960;-71
2022/06/11 12:03:40;;;;;;;;;;;;;;;28.76;31.97;97044.31;5083930;28;19964;-71
2022/06/11 12:06:08;;;;;;;;;;;;;;;28.54;30.71;97041.50;5094808;28;19957;-71
2022/06/11 12:08:37;;;;;;;;;;;;;;;28.46;33.80;97047.66;5094943;28;19951;-71
2022/06/11 12:11:04;;;;;;;;;;;;;;;28.65;33.38;97041.16;5094823;28;19959;-71
2022/06/11 12:13:32;;;;;;;;;;;;;;;28.84;32.83;97033.47;5094846;28;19985;-71
2022/06/11 12:15:59;;;;;;;;;;;;;;;29.03;32.22;97032.31;5094552;28;20314;-71
2022/06/11 12:18:27;;;;;;;;;;;;;;;29.03;30.16;97022.31;5094632;28;19956;-71
2022/06/11 12:20:56;;;;;;;;;;;;;;;28.94;30.30;97024.25;5094811;28;19965;-71
2022/06/11 12:23:22;;;;;;;;;;;;;;;28.99;32.09;97032.16;5094434;28;19968;-71
2022/06/11 12:25:51;;;;;;;;;;;;;;;29.16;33.06;97030.53;5094576;28;20410;-71
2022/06/11 12:28:21;;;;;;;;;;;;;;;29.32;32.85;97032.38;5094531;28;19961;-71
2022/06/11 12:30:54;;;;;;;;;;;;;;;29.43;32.33;97032.00;5092158;28;19985;-71
2022/06/11 12:33:21;;;;;;;;;;;;;;;29.47;30.56;97025.63;5094493;28;20109;-71
2022/06/11 12:35:58;;;;;;;;;;;;;;;29.51;31.01;97023.06;5094347;28;19994;-71
2022/06/11 12:38:35;;;;;;;;;;;;;;;29.42;31.79;97031.22;5091078;28;19958;-71
2022/06/11 12:41:31;;;;;;;;;;;;;;;29.35;30.49;97023.59;5075343;28;19954;-71
2022/06/11 12:44:00;;;;;;;;;;;;;;;29.23;31.10;97025.41;5093449;28;19965;-71
2022/06/11 12:46:29;;;;;;;;;;;;;;;29.31;31.33;97028.06;5094243;28;19961;-72
2022/06/11 12:49:13;;;;;;;;;;;;;;;29.23;30.92;97028.94;5076099;28;19967;-71
2022/06/11 12:51:48;;;;;;;;;;;;;;;29.09;31.27;97031.81;5094261;28;20320;-71
2022/06/11 12:54:39;;;;;;;;;;;;;;;28.98;30.81;97021.69;5094120;28;19975;-71
2022/06/11 12:57:21;;;;;;;;;;;;;;;28.96;32.11;97038.22;5094262;28;20401;-71
2022/06/11 12:59:59;;;;;;;;;;;;;;;28.81;32.38;97031.44;5094090;28;19964;-71
2022/06/11 13:02:25;;;;;;;;;;;;;;;28.84;31.35;97032.69;5093094;28;19956;-71
2022/06/11 13:05:00;;;;;;;;;;;;;;;28.83;32.26;97026.50;5093494;28;20308;-71
2022/06/11 13:07:29;;;;;;;;;;;;;;;28.95;32.44;97033.94;5075834;28;19963;-71
2022/06/11 13:10:04;;;;;;;;;;;;;;;29.07;32.20;97022.47;5091465;28;19975;-71